sensor_id;sensor_type;location;lat;lon;timestamp;P1;durP1;ratioP1;P2;durP2;ratioP2
2386;SDS011;49473;50.772;8.768;2024-02-23T00:01:10;0.70;;;0.70;;
2386;SDS011;49473;50.772;8.768;2024-02-23T00:03:37;2.60;;;0.73;;
2386;SDS011;49473;50.772;8.768;2024-02-23T00:06:04;1.63;;;0.50;;
2386;SDS011;49473;50.772;8.768;2024-02-23T00:08:30;0.77;;;0.60;;
2386;SDS011;49473;50.772;8.768;2024-02-23T00:10:59;2.63;;;0.80;;
2386;SDS011;49473;50.772;8.768;2024-02-23T00:13:25;1.30;;;0.80;;
2386;SDS011;49473;50.772;8.768;2024-02-23T00:15:52;1.00;;;0.60;;
2386;SDS011;49473;50.772;8.768;2024-02-23T00:18:19;3.93;;;0.80;;
2386;SDS011;49473;50.772;8.768;2024-02-23T00:20:46;1.33;;;0.80;;
2386;SDS011;49473;50.772;8.768;2024-02-23T00:23:12;1.00;;;0.60;;
2386;SDS011;49473;50.772;8.768;2024-02-23T00:25:39;1.43;;;0.80;;
2386;SDS011;49473;50.772;8.768;2024-02-23T00:28:08;1.63;;;0.90;;
2386;SDS011;49473;50.772;8.768;2024-02-23T00:30:34;1.17;;;0.70;;
2386;SDS011;49473;50.772;8.768;2024-02-23T00:33:01;1.40;;;0.80;;
2386;SDS011;49473;50.772;8.768;2024-02-23T00:35:28;1.07;;;0.60;;
2386;SDS011;49473;50.772;8.768;2024-02-23T00:37:55;2.40;;;0.77;;
2386;SDS011;49473;50.772;8.768;2024-02-23T00:40:22;1.63;;;0.63;;
2386;SDS011;49473;50.772;8.768;2024-02-23T00:42:49;0.90;;;0.70;;
2386;SDS011;49473;50.772;8.768;2024-02-23T00:45:17;1.70;;;0.80;;
2386;SDS011;49473;50.772;8.768;2024-02-23T00:47:44;1.87;;;0.70;;
2386;SDS011;49473;50.772;8.768;2024-02-23T00:50:12;2.03;;;0.90;;
2386;SDS011;49473;50.772;8.768;2024-02-23T00:52:38;2.00;;;1.20;;
2386;SDS011;49473;50.772;8.768;2024-02-23T00:55:06;2.40;;;0.60;;
2386;SDS011;49473;50.772;8.768;2024-02-23T00:57:33;0.60;;;0.60;;
2386;SDS011;49473;50.772;8.768;2024-02-23T01:00:00;0.80;;;0.60;;
2386;SDS011;49473;50.772;8.768;2024-02-23T01:02:29;3.70;;;0.73;;
2386;SDS011;49473;50.772;8.768;2024-02-23T01:04:56;1.27;;;0.70;;
2386;SDS011;49473;50.772;8.768;2024-02-23T01:07:23;2.77;;;0.70;;
2386;SDS011;49473;50.772;8.768;2024-02-23T01:09:50;1.53;;;0.73;;
2386;SDS011;49473;50.772;8.768;2024-02-23T01:12:17;0.90;;;0.83;;
2386;SDS011;49473;50.772;8.768;2024-02-23T01:14:44;0.87;;;0.70;;
2386;SDS011;49473;50.772;8.768;2024-02-23T01:17:13;0.67;;;0.67;;
2386;SDS011;49473;50.772;8.768;2024-02-23T01:19:42;1.53;;;0.70;;
2386;SDS011;49473;50.772;8.768;2024-02-23T01:22:09;1.47;;;0.60;;
2386;SDS011;49473;50.772;8.768;2024-02-23T01:24:36;1.73;;;0.60;;
2386;SDS011;49473;50.772;8.768;2024-02-23T01:27:03;0.83;;;0.63;;
2386;SDS011;49473;50.772;8.768;2024-02-23T01:29:30;2.20;;;0.70;;
2386;SDS011;49473;50.772;8.768;2024-02-23T01:31:57;2.80;;;0.80;;
2386;SDS011;49473;50.772;8.768;2024-02-23T01:34:24;2.40;;;0.67;;
2386;SDS011;49473;50.772;8.768;2024-02-23T01:36:52;1.70;;;0.80;;
2386;SDS011;49473;50.772;8.768;2024-02-23T01:39:19;1.00;;;0.57;;
2386;SDS011;49473;50.772;8.768;2024-02-23T01:41:46;1.10;;;0.60;;
2386;SDS011;49473;50.772;8.768;2024-02-23T01:44:13;0.50;;;0.50;;
2386;SDS011;49473;50.772;8.768;2024-02-23T01:46:42;1.07;;;0.50;;
2386;SDS011;49473;50.772;8.768;2024-02-23T01:49:09;0.93;;;0.50;;
2386;SDS011;49473;50.772;8.768;2024-02-23T01:51:36;0.40;;;0.40;;
2386;SDS011;49473;50.772;8.768;2024-02-23T01:54:04;1.80;;;0.50;;
2386;SDS011;49473;50.772;8.768;2024-02-23T01:56:32;0.80;;;0.50;;
2386;SDS011;49473;50.772;8.768;2024-02-23T01:59:01;2.10;;;0.57;;
2386;SDS011;49473;50.772;8.768;2024-02-23T02:01:29;0.73;;;0.67;;
2386;SDS011;49473;50.772;8.768;2024-02-23T02:03:56;0.43;;;0.43;;
2386;SDS011;49473;50.772;8.768;2024-02-23T02:06:23;0.80;;;0.47;;
2386;SDS011;49473;50.772;8.768;2024-02-23T02:08:50;0.80;;;0.43;;
2386;SDS011;49473;50.772;8.768;2024-02-23T02:11:19;1.00;;;0.40;;
2386;SDS011;49473;50.772;8.768;2024-02-23T02:13:46;0.40;;;0.40;;
2386;SDS011;49473;50.772;8.768;2024-02-23T02:16:12;0.40;;;0.40;;
2386;SDS011;49473;50.772;8.768;2024-02-23T02:18:39;0.67;;;0.47;;
2386;SDS011;49473;50.772;8.768;2024-02-23T02:21:06;0.40;;;0.40;;
2386;SDS011;49473;50.772;8.768;2024-02-23T02:23:33;0.80;;;0.40;;
2386;SDS011;49473;50.772;8.768;2024-02-23T02:26:02;1.67;;;0.47;;
2386;SDS011;49473;50.772;8.768;2024-02-23T02:28:31;2.00;;;0.50;;
2386;SDS011;49473;50.772;8.768;2024-02-23T02:30:57;0.50;;;0.50;;
2386;SDS011;49473;50.772;8.768;2024-02-23T02:33:24;0.70;;;0.50;;
2386;SDS011;49473;50.772;8.768;2024-02-23T02:35:51;0.40;;;0.40;;
2386;SDS011;49473;50.772;8.768;2024-02-23T02:38:18;0.60;;;0.50;;
2386;SDS011;49473;50.772;8.768;2024-02-23T02:40:45;1.43;;;0.70;;
2386;SDS011;49473;50.772;8.768;2024-02-23T02:43:11;0.40;;;0.40;;
2386;SDS011;49473;50.772;8.768;2024-02-23T02:45:39;0.60;;;0.57;;
2386;SDS011;49473;50.772;8.768;2024-02-23T02:48:07;0.37;;;0.33;;
2386;SDS011;49473;50.772;8.768;2024-02-23T02:50:33;0.47;;;0.47;;
2386;SDS011;49473;50.772;8.768;2024-02-23T02:53:00;0.40;;;0.40;;
2386;SDS011;49473;50.772;8.768;2024-02-23T02:55:27;0.60;;;0.60;;
2386;SDS011;49473;50.772;8.768;2024-02-23T02:57:54;1.13;;;0.60;;
2386;SDS011;49473;50.772;8.768;2024-02-23T03:00:20;0.40;;;0.40;;
2386;SDS011;49473;50.772;8.768;2024-02-23T03:02:48;1.00;;;0.40;;
2386;SDS011;49473;50.772;8.768;2024-02-23T03:05:15;1.60;;;0.67;;
2386;SDS011;49473;50.772;8.768;2024-02-23T03:07:42;0.70;;;0.60;;
2386;SDS011;49473;50.772;8.768;2024-02-23T03:10:09;0.60;;;0.50;;
2386;SDS011;49473;50.772;8.768;2024-02-23T03:12:36;2.20;;;0.70;;
2386;SDS011;49473;50.772;8.768;2024-02-23T03:15:02;1.93;;;0.80;;
2386;SDS011;49473;50.772;8.768;2024-02-23T03:17:30;1.23;;;0.50;;
2386;SDS011;49473;50.772;8.768;2024-02-23T03:19:59;0.67;;;0.67;;
2386;SDS011;49473;50.772;8.768;2024-02-23T03:22:26;0.50;;;0.50;;
2386;SDS011;49473;50.772;8.768;2024-02-23T03:24:52;0.70;;;0.60;;
2386;SDS011;49473;50.772;8.768;2024-02-23T03:27:19;0.50;;;0.50;;
2386;SDS011;49473;50.772;8.768;2024-02-23T03:29:53;1.90;;;0.83;;
2386;SDS011;49473;50.772;8.768;2024-02-23T03:32:20;1.33;;;0.60;;
2386;SDS011;49473;50.772;8.768;2024-02-23T03:34:46;0.57;;;0.50;;
2386;SDS011;49473;50.772;8.768;2024-02-23T03:37:14;1.23;;;0.60;;
2386;SDS011;49473;50.772;8.768;2024-02-23T03:39:41;0.50;;;0.50;;
2386;SDS011;49473;50.772;8.768;2024-02-23T03:42:08;1.13;;;0.60;;
2386;SDS011;49473;50.772;8.768;2024-02-23T03:44:35;0.87;;;0.80;;
2386;SDS011;49473;50.772;8.768;2024-02-23T03:47:01;2.30;;;0.70;;
2386;SDS011;49473;50.772;8.768;2024-02-23T03:49:28;2.17;;;0.70;;
2386;SDS011;49473;50.772;8.768;2024-02-23T03:51:55;1.33;;;0.80;;
2386;SDS011;49473;50.772;8.768;2024-02-23T03:54:23;1.73;;;0.67;;
2386;SDS011;49473;50.772;8.768;2024-02-23T03:56:50;0.70;;;0.70;;
2386;SDS011;49473;50.772;8.768;2024-02-23T03:59:16;1.17;;;0.70;;
2386;SDS011;49473;50.772;8.768;2024-02-23T04:01:43;1.50;;;0.80;;
2386;SDS011;49473;50.772;8.768;2024-02-23T04:04:10;0.70;;;0.70;;
2386;SDS011;49473;50.772;8.768;2024-02-23T04:06:37;0.73;;;0.67;;
2386;SDS011;49473;50.772;8.768;2024-02-23T04:09:04;1.80;;;0.90;;
2386;SDS011;49473;50.772;8.768;2024-02-23T04:11:32;1.37;;;0.80;;
2386;SDS011;49473;50.772;8.768;2024-02-23T04:13:59;1.37;;;0.73;;
2386;SDS011;49473;50.772;8.768;2024-02-23T04:16:26;0.60;;;0.60;;
2386;SDS011;49473;50.772;8.768;2024-02-23T04:18:53;1.13;;;0.73;;
2386;SDS011;49473;50.772;8.768;2024-02-23T04:21:21;2.20;;;0.67;;
2386;SDS011;49473;50.772;8.768;2024-02-23T04:23:48;1.80;;;0.93;;
2386;SDS011;49473;50.772;8.768;2024-02-23T04:26:14;0.60;;;0.60;;
2386;SDS011;49473;50.772;8.768;2024-02-23T04:28:42;2.23;;;0.70;;
2386;SDS011;49473;50.772;8.768;2024-02-23T04:31:09;2.97;;;0.63;;
2386;SDS011;49473;50.772;8.768;2024-02-23T04:33:36;1.10;;;0.50;;
2386;SDS011;49473;50.772;8.768;2024-02-23T04:36:04;2.70;;;0.87;;
2386;SDS011;49473;50.772;8.768;2024-02-23T04:38:31;1.47;;;0.80;;
2386;SDS011;49473;50.772;8.768;2024-02-23T04:41:01;1.37;;;0.80;;
2386;SDS011;49473;50.772;8.768;2024-02-23T04:43:29;0.60;;;0.60;;
2386;SDS011;49473;50.772;8.768;2024-02-23T04:45:57;3.93;;;0.80;;
2386;SDS011;49473;50.772;8.768;2024-02-23T04:48:24;1.43;;;0.60;;
2386;SDS011;49473;50.772;8.768;2024-02-23T04:50:50;1.30;;;0.73;;
2386;SDS011;49473;50.772;8.768;2024-02-23T04:53:17;0.87;;;0.67;;
2386;SDS011;49473;50.772;8.768;2024-02-23T04:55:44;1.37;;;0.70;;
2386;SDS011;49473;50.772;8.768;2024-02-23T04:58:11;4.00;;;0.80;;
2386;SDS011;49473;50.772;8.768;2024-02-23T05:00:38;0.90;;;0.63;;
2386;SDS011;49473;50.772;8.768;2024-02-23T05:03:06;0.77;;;0.67;;
2386;SDS011;49473;50.772;8.768;2024-02-23T05:05:32;1.50;;;0.63;;
2386;SDS011;49473;50.772;8.768;2024-02-23T05:08:01;1.37;;;1.00;;
2386;SDS011;49473;50.772;8.768;2024-02-23T05:10:28;4.10;;;1.10;;
2386;SDS011;49473;50.772;8.768;2024-02-23T05:12:55;2.10;;;1.27;;
2386;SDS011;49473;50.772;8.768;2024-02-23T05:15:21;2.80;;;0.87;;
2386;SDS011;49473;50.772;8.768;2024-02-23T05:17:48;1.63;;;1.37;;
2386;SDS011;49473;50.772;8.768;2024-02-23T05:20:16;1.43;;;0.90;;
2386;SDS011;49473;50.772;8.768;2024-02-23T05:22:43;1.17;;;0.80;;
2386;SDS011;49473;50.772;8.768;2024-02-23T05:25:10;1.50;;;0.90;;
2386;SDS011;49473;50.772;8.768;2024-02-23T05:27:37;1.90;;;1.00;;
2386;SDS011;49473;50.772;8.768;2024-02-23T05:30:04;2.80;;;1.27;;
2386;SDS011;49473;50.772;8.768;2024-02-23T05:32:31;2.93;;;1.03;;
2386;SDS011;49473;50.772;8.768;2024-02-23T05:34:58;1.53;;;0.63;;
2386;SDS011;49473;50.772;8.768;2024-02-23T05:37:26;4.23;;;1.20;;
2386;SDS011;49473;50.772;8.768;2024-02-23T05:39:53;2.47;;;1.00;;
2386;SDS011;49473;50.772;8.768;2024-02-23T05:42:20;1.13;;;0.90;;
2386;SDS011;49473;50.772;8.768;2024-02-23T05:44:46;2.60;;;0.97;;
2386;SDS011;49473;50.772;8.768;2024-02-23T05:47:13;2.60;;;1.00;;
2386;SDS011;49473;50.772;8.768;2024-02-23T05:49:40;1.97;;;1.00;;
2386;SDS011;49473;50.772;8.768;2024-02-23T05:52:07;1.77;;;0.97;;
2386;SDS011;49473;50.772;8.768;2024-02-23T05:54:36;2.77;;;0.90;;
2386;SDS011;49473;50.772;8.768;2024-02-23T05:57:03;1.33;;;0.87;;
2386;SDS011;49473;50.772;8.768;2024-02-23T05:59:30;1.67;;;0.90;;
2386;SDS011;49473;50.772;8.768;2024-02-23T06:01:57;3.03;;;1.40;;
2386;SDS011;49473;50.772;8.768;2024-02-23T06:04:24;1.43;;;1.00;;
2386;SDS011;49473;50.772;8.768;2024-02-23T06:06:52;2.50;;;0.90;;
2386;SDS011;49473;50.772;8.768;2024-02-23T06:09:18;2.30;;;0.80;;
2386;SDS011;49473;50.772;8.768;2024-02-23T06:11:47;1.37;;;1.27;;
2386;SDS011;49473;50.772;8.768;2024-02-23T06:14:13;1.10;;;1.00;;
2386;SDS011;49473;50.772;8.768;2024-02-23T06:16:40;2.00;;;0.80;;
2386;SDS011;49473;50.772;8.768;2024-02-23T06:19:07;2.90;;;0.97;;
2386;SDS011;49473;50.772;8.768;2024-02-23T06:21:35;1.00;;;0.90;;
2386;SDS011;49473;50.772;8.768;2024-02-23T06:24:02;2.80;;;1.10;;
2386;SDS011;49473;50.772;8.768;2024-02-23T06:26:29;2.00;;;0.90;;
2386;SDS011;49473;50.772;8.768;2024-02-23T06:28:58;5.87;;;1.20;;
2386;SDS011;49473;50.772;8.768;2024-02-23T06:31:24;2.40;;;1.00;;
2386;SDS011;49473;50.772;8.768;2024-02-23T06:33:51;2.17;;;1.00;;
2386;SDS011;49473;50.772;8.768;2024-02-23T06:36:18;1.53;;;1.20;;
2386;SDS011;49473;50.772;8.768;2024-02-23T06:38:45;2.00;;;1.00;;
2386;SDS011;49473;50.772;8.768;2024-02-23T06:41:11;1.60;;;0.90;;
2386;SDS011;49473;50.772;8.768;2024-02-23T06:43:38;2.80;;;1.70;;
2386;SDS011;49473;50.772;8.768;2024-02-23T06:46:07;2.40;;;1.10;;
2386;SDS011;49473;50.772;8.768;2024-02-23T06:48:34;1.73;;;1.17;;
2386;SDS011;49473;50.772;8.768;2024-02-23T06:51:02;1.13;;;0.90;;
2386;SDS011;49473;50.772;8.768;2024-02-23T06:53:29;1.17;;;1.07;;
2386;SDS011;49473;50.772;8.768;2024-02-23T06:55:56;5.40;;;0.90;;
2386;SDS011;49473;50.772;8.768;2024-02-23T06:58:25;4.73;;;1.63;;
2386;SDS011;49473;50.772;8.768;2024-02-23T07:00:52;1.30;;;0.80;;
2386;SDS011;49473;50.772;8.768;2024-02-23T07:03:20;3.30;;;1.10;;
2386;SDS011;49473;50.772;8.768;2024-02-23T07:05:47;5.67;;;1.30;;
2386;SDS011;49473;50.772;8.768;2024-02-23T07:08:15;4.57;;;1.60;;
2386;SDS011;49473;50.772;8.768;2024-02-23T07:10:41;3.83;;;1.23;;
2386;SDS011;49473;50.772;8.768;2024-02-23T07:13:08;4.00;;;1.20;;
2386;SDS011;49473;50.772;8.768;2024-02-23T07:15:36;1.87;;;0.90;;
2386;SDS011;49473;50.772;8.768;2024-02-23T07:18:03;1.97;;;1.30;;
2386;SDS011;49473;50.772;8.768;2024-02-23T07:20:34;0.93;;;0.83;;
2386;SDS011;49473;50.772;8.768;2024-02-23T07:23:01;1.97;;;1.00;;
2386;SDS011;49473;50.772;8.768;2024-02-23T07:25:28;2.40;;;1.03;;
2386;SDS011;49473;50.772;8.768;2024-02-23T07:27:55;1.67;;;0.87;;
2386;SDS011;49473;50.772;8.768;2024-02-23T07:30:21;1.87;;;1.10;;
2386;SDS011;49473;50.772;8.768;2024-02-23T07:32:48;3.47;;;1.40;;
2386;SDS011;49473;50.772;8.768;2024-02-23T07:35:15;4.17;;;1.20;;
2386;SDS011;49473;50.772;8.768;2024-02-23T07:37:43;2.30;;;1.20;;
2386;SDS011;49473;50.772;8.768;2024-02-23T07:40:10;2.50;;;1.10;;
2386;SDS011;49473;50.772;8.768;2024-02-23T07:42:37;1.43;;;1.17;;
2386;SDS011;49473;50.772;8.768;2024-02-23T07:45:04;4.80;;;1.13;;
2386;SDS011;49473;50.772;8.768;2024-02-23T07:47:34;2.70;;;1.30;;
2386;SDS011;49473;50.772;8.768;2024-02-23T07:50:01;6.87;;;1.30;;
2386;SDS011;49473;50.772;8.768;2024-02-23T07:52:27;2.40;;;1.20;;
2386;SDS011;49473;50.772;8.768;2024-02-23T07:54:55;1.80;;;1.40;;
2386;SDS011;49473;50.772;8.768;2024-02-23T07:57:22;2.87;;;1.33;;
2386;SDS011;49473;50.772;8.768;2024-02-23T07:59:49;3.90;;;2.00;;
2386;SDS011;49473;50.772;8.768;2024-02-23T08:02:16;2.40;;;1.50;;
2386;SDS011;49473;50.772;8.768;2024-02-23T08:04:43;3.40;;;1.63;;
2386;SDS011;49473;50.772;8.768;2024-02-23T08:07:12;2.93;;;1.47;;
2386;SDS011;49473;50.772;8.768;2024-02-23T08:09:39;5.43;;;1.50;;
2386;SDS011;49473;50.772;8.768;2024-02-23T08:12:08;1.27;;;1.17;;
2386;SDS011;49473;50.772;8.768;2024-02-23T08:14:36;3.70;;;1.43;;
2386;SDS011;49473;50.772;8.768;2024-02-23T08:17:04;3.70;;;1.33;;
2386;SDS011;49473;50.772;8.768;2024-02-23T08:19:30;1.93;;;1.53;;
2386;SDS011;49473;50.772;8.768;2024-02-23T08:21:58;4.30;;;1.53;;
2386;SDS011;49473;50.772;8.768;2024-02-23T08:24:25;2.90;;;1.20;;
2386;SDS011;49473;50.772;8.768;2024-02-23T08:26:52;2.57;;;1.33;;
2386;SDS011;49473;50.772;8.768;2024-02-23T08:29:20;2.67;;;1.30;;
2386;SDS011;49473;50.772;8.768;2024-02-23T08:31:46;2.07;;;1.30;;
2386;SDS011;49473;50.772;8.768;2024-02-23T08:34:14;2.40;;;1.47;;
2386;SDS011;49473;50.772;8.768;2024-02-23T08:36:42;5.37;;;1.50;;
2386;SDS011;49473;50.772;8.768;2024-02-23T08:39:09;2.70;;;1.37;;
2386;SDS011;49473;50.772;8.768;2024-02-23T08:41:36;6.97;;;1.50;;
2386;SDS011;49473;50.772;8.768;2024-02-23T08:44:03;2.27;;;1.30;;
2386;SDS011;49473;50.772;8.768;2024-02-23T08:46:31;4.00;;;1.40;;
2386;SDS011;49473;50.772;8.768;2024-02-23T08:48:58;3.30;;;1.50;;
2386;SDS011;49473;50.772;8.768;2024-02-23T08:51:25;5.60;;;1.30;;
2386;SDS011;49473;50.772;8.768;2024-02-23T08:53:52;2.17;;;1.10;;
2386;SDS011;49473;50.772;8.768;2024-02-23T08:56:20;2.00;;;1.30;;
2386;SDS011;49473;50.772;8.768;2024-02-23T08:58:47;2.77;;;1.33;;
2386;SDS011;49473;50.772;8.768;2024-02-23T09:01:13;3.60;;;1.47;;
2386;SDS011;49473;50.772;8.768;2024-02-23T09:03:41;3.57;;;1.50;;
2386;SDS011;49473;50.772;8.768;2024-02-23T09:06:08;3.90;;;1.93;;
2386;SDS011;49473;50.772;8.768;2024-02-23T09:08:35;2.50;;;1.53;;
2386;SDS011;49473;50.772;8.768;2024-02-23T09:11:02;2.93;;;1.83;;
2386;SDS011;49473;50.772;8.768;2024-02-23T09:13:29;1.87;;;1.50;;
2386;SDS011;49473;50.772;8.768;2024-02-23T09:15:56;3.80;;;1.60;;
2386;SDS011;49473;50.772;8.768;2024-02-23T09:18:22;2.10;;;1.70;;
2386;SDS011;49473;50.772;8.768;2024-02-23T09:20:50;1.40;;;1.03;;
2386;SDS011;49473;50.772;8.768;2024-02-23T09:23:17;3.63;;;1.00;;
2386;SDS011;49473;50.772;8.768;2024-02-23T09:25:44;3.23;;;1.37;;
2386;SDS011;49473;50.772;8.768;2024-02-23T09:28:11;3.10;;;1.10;;
2386;SDS011;49473;50.772;8.768;2024-02-23T09:30:37;1.10;;;0.90;;
2386;SDS011;49473;50.772;8.768;2024-02-23T09:33:05;2.60;;;1.00;;
2386;SDS011;49473;50.772;8.768;2024-02-23T09:35:31;2.97;;;1.03;;
2386;SDS011;49473;50.772;8.768;2024-02-23T09:38:00;3.57;;;1.47;;
2386;SDS011;49473;50.772;8.768;2024-02-23T09:40:27;3.80;;;1.50;;
2386;SDS011;49473;50.772;8.768;2024-02-23T09:42:55;2.40;;;1.20;;
2386;SDS011;49473;50.772;8.768;2024-02-23T09:45:24;2.10;;;1.20;;
2386;SDS011;49473;50.772;8.768;2024-02-23T09:47:52;2.93;;;0.80;;
2386;SDS011;49473;50.772;8.768;2024-02-23T09:50:19;1.47;;;0.73;;
2386;SDS011;49473;50.772;8.768;2024-02-23T09:52:48;2.83;;;1.10;;
2386;SDS011;49473;50.772;8.768;2024-02-23T09:55:17;3.03;;;1.13;;
2386;SDS011;49473;50.772;8.768;2024-02-23T09:57:46;3.40;;;1.20;;
2386;SDS011;49473;50.772;8.768;2024-02-23T10:00:15;1.90;;;1.27;;
2386;SDS011;49473;50.772;8.768;2024-02-23T10:02:43;2.10;;;1.40;;
2386;SDS011;49473;50.772;8.768;2024-02-23T10:05:10;2.23;;;1.30;;
2386;SDS011;49473;50.772;8.768;2024-02-23T10:07:37;2.17;;;1.17;;
2386;SDS011;49473;50.772;8.768;2024-02-23T10:10:06;1.80;;;1.10;;
2386;SDS011;49473;50.772;8.768;2024-02-23T10:12:34;2.40;;;1.00;;
2386;SDS011;49473;50.772;8.768;2024-02-23T10:15:01;4.00;;;1.60;;
2386;SDS011;49473;50.772;8.768;2024-02-23T10:17:29;2.03;;;0.97;;
2386;SDS011;49473;50.772;8.768;2024-02-23T10:19:56;1.43;;;0.87;;
2386;SDS011;49473;50.772;8.768;2024-02-23T10:22:23;1.27;;;0.90;;
2386;SDS011;49473;50.772;8.768;2024-02-23T10:24:51;1.17;;;0.83;;
2386;SDS011;49473;50.772;8.768;2024-02-23T10:27:17;2.73;;;1.37;;
2386;SDS011;49473;50.772;8.768;2024-02-23T10:29:48;1.07;;;0.73;;
2386;SDS011;49473;50.772;8.768;2024-02-23T10:32:15;2.10;;;1.30;;
2386;SDS011;49473;50.772;8.768;2024-02-23T10:34:45;1.97;;;1.03;;
2386;SDS011;49473;50.772;8.768;2024-02-23T10:37:14;2.30;;;1.03;;
2386;SDS011;49473;50.772;8.768;2024-02-23T10:39:40;2.67;;;1.30;;
2386;SDS011;49473;50.772;8.768;2024-02-23T10:42:09;1.83;;;0.93;;
2386;SDS011;49473;50.772;8.768;2024-02-23T10:44:36;1.53;;;0.83;;
2386;SDS011;49473;50.772;8.768;2024-02-23T10:47:05;1.07;;;0.97;;
2386;SDS011;49473;50.772;8.768;2024-02-23T10:49:33;1.30;;;0.77;;
2386;SDS011;49473;50.772;8.768;2024-02-23T10:52:01;2.20;;;1.40;;
2386;SDS011;49473;50.772;8.768;2024-02-23T10:54:28;2.67;;;1.13;;
2386;SDS011;49473;50.772;8.768;2024-02-23T10:56:57;1.00;;;0.90;;
2386;SDS011;49473;50.772;8.768;2024-02-23T10:59:25;5.70;;;1.30;;
2386;SDS011;49473;50.772;8.768;2024-02-23T11:01:53;1.20;;;1.00;;
2386;SDS011;49473;50.772;8.768;2024-02-23T11:04:23;2.87;;;1.60;;
2386;SDS011;49473;50.772;8.768;2024-02-23T11:06:52;1.87;;;1.10;;
2386;SDS011;49473;50.772;8.768;2024-02-23T11:09:23;3.13;;;1.37;;
2386;SDS011;49473;50.772;8.768;2024-02-23T11:11:51;3.07;;;2.07;;
2386;SDS011;49473;50.772;8.768;2024-02-23T11:14:28;2.73;;;1.90;;
2386;SDS011;49473;50.772;8.768;2024-02-23T11:16:55;2.30;;;1.37;;
2386;SDS011;49473;50.772;8.768;2024-02-23T11:19:31;2.53;;;1.03;;
2386;SDS011;49473;50.772;8.768;2024-02-23T11:21:58;1.53;;;0.90;;
2386;SDS011;49473;50.772;8.768;2024-02-23T11:24:25;3.97;;;1.47;;
2386;SDS011;49473;50.772;8.768;2024-02-23T11:26:56;1.57;;;1.00;;
2386;SDS011;49473;50.772;8.768;2024-02-23T11:29:25;4.13;;;1.47;;
2386;SDS011;49473;50.772;8.768;2024-02-23T11:31:53;1.70;;;1.03;;
2386;SDS011;49473;50.772;8.768;2024-02-23T11:34:27;2.03;;;1.03;;
2386;SDS011;49473;50.772;8.768;2024-02-23T11:36:54;3.90;;;1.07;;
2386;SDS011;49473;50.772;8.768;2024-02-23T11:39:21;2.30;;;0.90;;
2386;SDS011;49473;50.772;8.768;2024-02-23T11:41:48;2.80;;;1.30;;
2386;SDS011;49473;50.772;8.768;2024-02-23T11:44:15;3.57;;;1.10;;
2386;SDS011;49473;50.772;8.768;2024-02-23T11:46:43;1.87;;;0.90;;
2386;SDS011;49473;50.772;8.768;2024-02-23T11:49:11;2.10;;;0.83;;
2386;SDS011;49473;50.772;8.768;2024-02-23T11:51:39;1.60;;;0.80;;
2386;SDS011;49473;50.772;8.768;2024-02-23T11:54:06;1.10;;;1.00;;
2386;SDS011;49473;50.772;8.768;2024-02-23T11:56:33;1.47;;;0.90;;
2386;SDS011;49473;50.772;8.768;2024-02-23T11:59:01;2.07;;;1.00;;
2386;SDS011;49473;50.772;8.768;2024-02-23T12:01:28;1.70;;;0.80;;
2386;SDS011;49473;50.772;8.768;2024-02-23T12:03:57;3.73;;;0.90;;
2386;SDS011;49473;50.772;8.768;2024-02-23T12:06:23;0.80;;;0.80;;
2386;SDS011;49473;50.772;8.768;2024-02-23T12:08:55;2.10;;;1.83;;
2386;SDS011;49473;50.772;8.768;2024-02-23T12:11:23;3.20;;;1.33;;
2386;SDS011;49473;50.772;8.768;2024-02-23T12:13:50;1.10;;;1.00;;
2386;SDS011;49473;50.772;8.768;2024-02-23T12:16:17;1.33;;;1.10;;
2386;SDS011;49473;50.772;8.768;2024-02-23T12:18:44;1.40;;;1.30;;
2386;SDS011;49473;50.772;8.768;2024-02-23T12:21:10;2.00;;;1.27;;
2386;SDS011;49473;50.772;8.768;2024-02-23T12:23:39;1.57;;;0.80;;
2386;SDS011;49473;50.772;8.768;2024-02-23T12:26:08;1.53;;;0.93;;
2386;SDS011;49473;50.772;8.768;2024-02-23T12:28:35;1.03;;;0.63;;
2386;SDS011;49473;50.772;8.768;2024-02-23T12:31:01;0.60;;;0.60;;
2386;SDS011;49473;50.772;8.768;2024-02-23T12:33:29;1.00;;;0.70;;
2386;SDS011;49473;50.772;8.768;2024-02-23T12:35:59;2.13;;;0.70;;
2386;SDS011;49473;50.772;8.768;2024-02-23T12:38:27;1.53;;;0.80;;
2386;SDS011;49473;50.772;8.768;2024-02-23T12:40:54;1.40;;;1.00;;
2386;SDS011;49473;50.772;8.768;2024-02-23T12:43:22;0.80;;;0.80;;
2386;SDS011;49473;50.772;8.768;2024-02-23T12:45:49;2.90;;;0.90;;
2386;SDS011;49473;50.772;8.768;2024-02-23T12:48:16;1.20;;;0.80;;
2386;SDS011;49473;50.772;8.768;2024-02-23T12:50:43;2.20;;;1.10;;
2386;SDS011;49473;50.772;8.768;2024-02-23T12:53:10;1.43;;;0.93;;
2386;SDS011;49473;50.772;8.768;2024-02-23T12:55:55;1.13;;;0.73;;
2386;SDS011;49473;50.772;8.768;2024-02-23T12:58:24;1.83;;;1.10;;
2386;SDS011;49473;50.772;8.768;2024-02-23T13:00:50;2.70;;;1.53;;
2386;SDS011;49473;50.772;8.768;2024-02-23T13:03:18;0.90;;;0.70;;
2386;SDS011;49473;50.772;8.768;2024-02-23T13:05:44;1.37;;;0.60;;
2386;SDS011;49473;50.772;8.768;2024-02-23T13:08:12;1.37;;;0.60;;
2386;SDS011;49473;50.772;8.768;2024-02-23T13:10:38;3.27;;;0.93;;
2386;SDS011;49473;50.772;8.768;2024-02-23T13:13:05;0.93;;;0.60;;
2386;SDS011;49473;50.772;8.768;2024-02-23T13:15:34;1.53;;;0.83;;
2386;SDS011;49473;50.772;8.768;2024-02-23T13:18:02;1.40;;;0.70;;
2386;SDS011;49473;50.772;8.768;2024-02-23T13:20:29;0.90;;;0.83;;
2386;SDS011;49473;50.772;8.768;2024-02-23T13:22:55;1.10;;;0.70;;
2386;SDS011;49473;50.772;8.768;2024-02-23T13:25:22;2.30;;;1.30;;
2386;SDS011;49473;50.772;8.768;2024-02-23T13:27:49;2.20;;;0.73;;
2386;SDS011;49473;50.772;8.768;2024-02-23T13:30:15;1.60;;;0.90;;
2386;SDS011;49473;50.772;8.768;2024-02-23T13:32:44;1.53;;;0.70;;
2386;SDS011;49473;50.772;8.768;2024-02-23T13:35:10;2.70;;;0.80;;
2386;SDS011;49473;50.772;8.768;2024-02-23T13:37:39;2.43;;;0.70;;
2386;SDS011;49473;50.772;8.768;2024-02-23T13:40:06;1.90;;;0.80;;
2386;SDS011;49473;50.772;8.768;2024-02-23T13:42:34;1.57;;;0.80;;
2386;SDS011;49473;50.772;8.768;2024-02-23T13:45:03;1.20;;;0.90;;
2386;SDS011;49473;50.772;8.768;2024-02-23T13:47:30;2.17;;;0.90;;
2386;SDS011;49473;50.772;8.768;2024-02-23T13:49:59;3.27;;;1.00;;
2386;SDS011;49473;50.772;8.768;2024-02-23T13:52:25;1.70;;;1.10;;
2386;SDS011;49473;50.772;8.768;2024-02-23T13:54:52;2.60;;;1.00;;
2386;SDS011;49473;50.772;8.768;2024-02-23T13:57:19;1.87;;;0.80;;
2386;SDS011;49473;50.772;8.768;2024-02-23T13:59:46;3.13;;;1.07;;
2386;SDS011;49473;50.772;8.768;2024-02-23T14:02:13;1.70;;;1.00;;
2386;SDS011;49473;50.772;8.768;2024-02-23T14:04:40;3.43;;;1.20;;
2386;SDS011;49473;50.772;8.768;2024-02-23T14:07:08;1.23;;;0.80;;
2386;SDS011;49473;50.772;8.768;2024-02-23T14:09:35;1.50;;;0.83;;
2386;SDS011;49473;50.772;8.768;2024-02-23T14:12:02;1.97;;;0.93;;
2386;SDS011;49473;50.772;8.768;2024-02-23T14:14:29;3.07;;;0.80;;
2386;SDS011;49473;50.772;8.768;2024-02-23T14:16:56;3.13;;;0.97;;
2386;SDS011;49473;50.772;8.768;2024-02-23T14:19:23;2.97;;;0.90;;
2386;SDS011;49473;50.772;8.768;2024-02-23T14:21:50;0.90;;;0.80;;
2386;SDS011;49473;50.772;8.768;2024-02-23T14:24:19;2.03;;;1.23;;
2386;SDS011;49473;50.772;8.768;2024-02-23T14:26:45;2.67;;;0.90;;
2386;SDS011;49473;50.772;8.768;2024-02-23T14:29:12;1.73;;;1.10;;
2386;SDS011;49473;50.772;8.768;2024-02-23T14:31:39;1.60;;;0.87;;
2386;SDS011;49473;50.772;8.768;2024-02-23T14:34:06;1.80;;;0.90;;
2386;SDS011;49473;50.772;8.768;2024-02-23T14:36:33;1.70;;;0.93;;
2386;SDS011;49473;50.772;8.768;2024-02-23T14:39:00;2.23;;;0.70;;
2386;SDS011;49473;50.772;8.768;2024-02-23T14:41:30;2.90;;;1.30;;
2386;SDS011;49473;50.772;8.768;2024-02-23T14:43:57;1.00;;;0.80;;
2386;SDS011;49473;50.772;8.768;2024-02-23T14:46:24;0.60;;;0.60;;
2386;SDS011;49473;50.772;8.768;2024-02-23T14:48:51;1.47;;;0.70;;
2386;SDS011;49473;50.772;8.768;2024-02-23T14:51:18;1.70;;;1.10;;
2386;SDS011;49473;50.772;8.768;2024-02-23T14:53:45;1.37;;;0.90;;
2386;SDS011;49473;50.772;8.768;2024-02-23T14:56:12;4.73;;;0.77;;
2386;SDS011;49473;50.772;8.768;2024-02-23T14:58:40;0.80;;;0.80;;
2386;SDS011;49473;50.772;8.768;2024-02-23T15:01:07;2.07;;;1.00;;